M I D A S
Marine Information and Data Acquisition System
Tripno 2052 of the Zeeleeuw from 2011-03-03 08:36:30 to 2011-03-03 15:11:51
Back to CruiseResearch ActivitiesStationsMapUnderway DataData graphs

EquipmentUnitsComment
TimeDGPSUTC
LatitudeDGPSDM.mWGS84
LongitudeDGPSDM.mWGS84
HeadingGyrodeg 
SOGDGPSknotsSpeed over ground
COGDGPSdegCourse over ground
DepthEcho soundermeters200 kHz
Missing or incorrect values are displayed as -999
Navigation data collected by the RV Zeeleeuw from 2011-03-03 03:43:50 to 2011-03-03 15:19:15
                                                                                    Next 1000 lines
Time Latitude Longitude Heading SOG COG Depth
2011-03-03 03:44:00 51°13.661 2°55.958 125.5 0.1 196 -999
2011-03-03 03:44:05 51°13.661 2°55.957 125.4 -999 17 -999
2011-03-03 03:44:10 51°13.661 2°55.957 125.4 0.1 175 -999
2011-03-03 03:44:15 51°13.661 2°55.957 125.3 -999 155 -999
2011-03-03 03:44:20 51°13.661 2°55.958 125.3 0.1 145 -999
2011-03-03 03:44:25 51°13.661 2°55.958 125.3 -999 116 -999
2011-03-03 03:44:30 51°13.661 2°55.958 125.3 -999 111 -999
2011-03-03 03:44:35 51°13.661 2°55.958 125.3 0.1 163 -999
2011-03-03 03:44:40 51°13.661 2°55.958 125.3 0.1 158 -999
2011-03-03 03:44:45 51°13.661 2°55.958 125.5 0.1 112 -999
2011-03-03 03:44:50 51°13.661 2°55.958 125.6 0.1 171 -999
2011-03-03 03:44:55 51°13.661 2°55.958 125.7 0.1 175 -999
2011-03-03 03:45:00 51°13.662 2°55.958 125.8 0.1 159 -999
2011-03-03 03:45:05 51°13.662 2°55.958 125.9 -999 88 -999
2011-03-03 03:45:10 51°13.662 2°55.958 126.1 -999 69 -999
2011-03-03 03:45:15 51°13.662 2°55.958 126.2 -999 31 -999
2011-03-03 03:45:20 51°13.662 2°55.958 126.2 -999 137 -999
2011-03-03 03:45:25 51°13.662 2°55.958 126.2 -999 143 -999
2011-03-03 03:45:30 51°13.662 2°55.958 126.2 -999 142 -999
2011-03-03 03:45:35 51°13.662 2°55.958 126.2 0.1 173 -999
2011-03-03 03:45:40 51°13.661 2°55.958 126.2 0.1 166 -999
2011-03-03 03:45:45 51°13.661 2°55.958 126.2 0.1 164 -999
2011-03-03 03:45:50 51°13.661 2°55.958 126.1 -999 143 -999
2011-03-03 03:45:55 51°13.661 2°55.958 126 -999 107 -999
2011-03-03 03:46:00 51°13.662 2°55.958 125.9 -999 141 -999
2011-03-03 03:46:05 51°13.662 2°55.958 125.8 0.1 131 -999
2011-03-03 03:46:10 51°13.661 2°55.958 125.7 0.1 172 -999
2011-03-03 03:46:15 51°13.661 2°55.958 125.7 -999 134 -999
2011-03-03 03:46:20 51°13.661 2°55.958 125.8 -999 40 -999
2011-03-03 03:46:25 51°13.662 2°55.958 125.8 -999 63 -999
2011-03-03 03:46:30 51°13.661 2°55.958 125.8 -999 65 -999
2011-03-03 03:46:35 51°13.662 2°55.958 125.8 0.1 161 -999
2011-03-03 03:46:40 51°13.662 2°55.959 125.9 -999 69 -999
2011-03-03 03:46:45 51°13.662 2°55.959 126 -999 83 -999
2011-03-03 03:46:50 51°13.662 2°55.959 126 -999 136 -999
2011-03-03 03:46:55 51°13.662 2°55.959 126 -999 164 -999
2011-03-03 03:47:00 51°13.661 2°55.959 126 0.1 171 -999
2011-03-03 03:47:05 51°13.661 2°55.959 125.9 0.1 147 -999
2011-03-03 03:47:10 51°13.662 2°55.959 125.8 0.1 39 -999
2011-03-03 03:47:15 51°13.661 2°55.958 125.7 -999 170 -999
2011-03-03 03:47:20 51°13.661 2°55.958 125.7 -999 165 -999
2011-03-03 03:47:25 51°13.661 2°55.958 125.7 -999 139 -999
2011-03-03 03:47:30 51°13.661 2°55.958 125.7 -999 131 -999
2011-03-03 03:47:35 51°13.661 2°55.958 125.7 -999 162 -999
2011-03-03 03:47:40 51°13.661 2°55.958 125.7 -999 160 -999
2011-03-03 03:47:45 51°13.661 2°55.958 125.7 0.1 151 -999
2011-03-03 03:47:50 51°13.661 2°55.958 125.8 0.1 157 -999
2011-03-03 03:47:55 51°13.661 2°55.958 125.8 0.1 161 -999
2011-03-03 03:48:00 51°13.661 2°55.958 125.9 0.1 166 -999
2011-03-03 03:48:05 51°13.66 2°55.958 126.1 0.1 162 -999
2011-03-03 03:48:10 51°13.66 2°55.958 126.2 0.1 162 -999
2011-03-03 03:48:15 51°13.661 2°55.958 126.3 0.1 163 -999
2011-03-03 03:48:20 51°13.661 2°55.958 126.3 -999 140 -999
2011-03-03 03:48:25 51°13.661 2°55.958 126.3 0.1 171 -999
2011-03-03 03:48:30 51°13.661 2°55.958 126.4 0.1 169 -999
2011-03-03 03:48:35 51°13.661 2°55.958 126.4 -999 158 -999
2011-03-03 03:48:40 51°13.661 2°55.958 126.4 0.1 144 -999
2011-03-03 03:48:45 51°13.661 2°55.958 126.4 0.1 154 -999
2011-03-03 03:48:50 51°13.661 2°55.958 126.4 0.1 17 -999
2011-03-03 03:48:55 51°13.661 2°55.958 126.4 -999 33 -999
2011-03-03 03:49:00 51°13.661 2°55.958 126.3 -999 166 -999
2011-03-03 03:49:05 51°13.661 2°55.958 126.3 -999 146 -999
2011-03-03 03:49:10 51°13.662 2°55.958 126.3 0.2 11 -999
2011-03-03 03:49:15 51°13.662 2°55.958 126.2 0.1 11 -999
2011-03-03 03:49:20 51°13.662 2°55.958 126.2 -999 147 -999
2011-03-03 03:49:25 51°13.662 2°55.958 126.2 0.1 166 -999
2011-03-03 03:49:30 51°13.662 2°55.958 126.2 -999 53 -999
2011-03-03 03:49:35 51°13.662 2°55.958 126.2 0.1 11 -999
2011-03-03 03:49:40 51°13.662 2°55.958 126.2 0.1 45 -999
2011-03-03 03:49:45 51°13.662 2°55.958 126.2 -999 131 -999
2011-03-03 03:49:50 51°13.662 2°55.958 126.3 0.1 25 -999
2011-03-03 03:49:55 51°13.662 2°55.958 126.4 -999 69 -999
2011-03-03 03:50:00 51°13.662 2°55.958 126.4 0.1 37 -999
2011-03-03 03:50:05 51°13.662 2°55.958 126.5 0.1 15 -999
2011-03-03 03:50:10 51°13.662 2°55.958 126.5 0.1 14 -999
2011-03-03 03:50:15 51°13.662 2°55.958 126.5 0.1 23 -999
2011-03-03 03:50:20 51°13.662 2°55.958 126.5 -999 154 -999
2011-03-03 03:50:25 51°13.662 2°55.958 126.5 -999 5 -999
2011-03-03 03:50:30 51°13.662 2°55.958 126.5 0.1 160 -999
2011-03-03 03:50:35 51°13.662 2°55.958 126.5 -999 151 -999
2011-03-03 03:50:40 51°13.662 2°55.958 126.5 0.1 156 -999
2011-03-03 03:50:45 51°13.662 2°55.958 126.5 -999 133 -999
2011-03-03 03:50:50 51°13.662 2°55.958 126.5 -999 119 -999
2011-03-03 03:50:55 51°13.662 2°55.958 126.4 -999 100 -999
2011-03-03 03:51:00 51°13.662 2°55.958 126.4 0.1 168 -999
2011-03-03 03:51:05 51°13.662 2°55.958 126.4 -999 155 -999
2011-03-03 03:51:10 51°13.662 2°55.958 126.4 -999 129 -999
2011-03-03 03:51:15 51°13.662 2°55.958 126.4 0.1 126 -999
2011-03-03 03:51:20 51°13.662 2°55.958 126.3 0.1 183 -999
2011-03-03 03:51:25 51°13.662 2°55.958 126.3 -999 57 -999
2011-03-03 03:51:30 51°13.662 2°55.958 126.2 -999 83 -999
2011-03-03 03:51:35 51°13.662 2°55.958 126.2 0.1 32 -999
2011-03-03 03:51:40 51°13.662 2°55.958 126.1 0.1 164 -999
2011-03-03 03:51:45 51°13.662 2°55.958 126.1 -999 60 -999
2011-03-03 03:51:50 51°13.662 2°55.958 126 0.1 23 -999
2011-03-03 03:51:55 51°13.662 2°55.959 125.9 -999 167 -999
2011-03-03 03:52:00 51°13.662 2°55.959 125.8 0.1 174 -999
2011-03-03 03:52:05 51°13.662 2°55.959 125.8 -999 143 -999
2011-03-03 03:52:10 51°13.662 2°55.959 125.8 0.1 30 -999
2011-03-03 03:52:15 51°13.663 2°55.959 125.8 0.1 16 -999
2011-03-03 03:52:20 51°13.663 2°55.959 125.8 0.1 29 -999
2011-03-03 03:52:25 51°13.663 2°55.959 125.8 0.1 41 -999
2011-03-03 03:52:30 51°13.662 2°55.959 125.8 0.1 164 -999
2011-03-03 03:52:35 51°13.662 2°55.959 125.9 -999 104 -999
2011-03-03 03:52:40 51°13.662 2°55.959 125.9 -999 31 -999
2011-03-03 03:52:45 51°13.662 2°55.959 125.9 -999 52 -999
2011-03-03 03:52:50 51°13.662 2°55.959 125.9 0.1 166 -999
2011-03-03 03:52:55 51°13.662 2°55.959 125.7 -999 119 -999
2011-03-03 03:53:00 51°13.663 2°55.959 125.7 0.1 13 -999
2011-03-03 03:53:05 51°13.663 2°55.959 125.7 0.1 28 -999
2011-03-03 03:53:10 51°13.663 2°55.959 125.7 0.1 170 -999
2011-03-03 03:53:15 51°13.663 2°55.959 125.6 0.1 171 -999
2011-03-03 03:53:20 51°13.663 2°55.959 125.5 0.1 178 -999
2011-03-03 03:53:25 51°13.663 2°55.959 125.4 -999 101 -999
2011-03-03 03:53:30 51°13.663 2°55.959 125.4 0.1 27 -999
2011-03-03 03:53:35 51°13.663 2°55.959 125.4 0.1 20 -999
2011-03-03 03:53:40 51°13.663 2°55.959 125.4 0.1 150 -999
2011-03-03 03:53:45 51°13.664 2°55.959 125.4 -999 98 -999
2011-03-03 03:53:50 51°13.663 2°55.959 125.3 0.1 141 -999
2011-03-03 03:53:55 51°13.663 2°55.959 125.3 0.1 144 -999
2011-03-03 03:54:00 51°13.663 2°55.959 125.3 0.1 172 -999
2011-03-03 03:54:05 51°13.663 2°55.959 125.3 0.1 171 -999
2011-03-03 03:54:10 51°13.662 2°55.959 125.3 0.2 186 -999
2011-03-03 03:54:15 51°13.663 2°55.959 125.3 0.1 183 -999
2011-03-03 03:54:20 51°13.663 2°55.959 125.3 -999 103 -999
2011-03-03 03:54:25 51°13.664 2°55.959 125.4 0.1 29 -999
2011-03-03 03:54:30 51°13.663 2°55.959 125.5 0.1 60 -999
2011-03-03 03:54:35 51°13.663 2°55.959 125.6 0.1 145 -999
2011-03-03 03:54:40 51°13.663 2°55.959 125.7 -999 148 -999
2011-03-03 03:54:45 51°13.663 2°55.959 125.7 0.1 22 -999
2011-03-03 03:54:50 51°13.663 2°55.959 125.7 0.1 25 -999
2011-03-03 03:54:55 51°13.663 2°55.959 125.7 0.1 146 -999
2011-03-03 03:55:00 51°13.663 2°55.959 125.7 0.1 173 -999
2011-03-03 03:55:05 51°13.663 2°55.959 125.7 -999 172 -999
2011-03-03 03:55:10 51°13.664 2°55.959 125.7 0.1 26 -999
2011-03-03 03:55:15 51°13.663 2°55.959 125.7 0.1 69 -999
2011-03-03 03:55:20 51°13.663 2°55.959 125.7 0.1 195 -999
2011-03-03 03:55:25 51°13.663 2°55.959 125.7 -999 359 -999
2011-03-03 03:55:30 51°13.663 2°55.959 125.7 0.1 35 -999
2011-03-03 03:55:35 51°13.663 2°55.959 125.7 -999 98 -999
2011-03-03 03:55:40 51°13.663 2°55.959 125.7 0.1 45 -999
2011-03-03 03:55:45 51°13.663 2°55.959 125.7 0.1 130 -999
2011-03-03 03:55:50 51°13.663 2°55.959 125.7 -999 85 -999
2011-03-03 03:55:55 51°13.663 2°55.959 125.7 0.2 174 -999
2011-03-03 03:56:00 51°13.663 2°55.959 125.7 -999 138 -999
2011-03-03 03:56:05 51°13.663 2°55.959 125.7 0.1 173 -999
2011-03-03 03:56:10 51°13.662 2°55.959 125.7 0.2 183 -999
2011-03-03 03:56:15 51°13.663 2°55.959 125.8 -999 223 -999
2011-03-03 03:56:20 51°13.663 2°55.959 125.7 0.1 20 -999
2011-03-03 03:56:25 51°13.663 2°55.959 125.7 -999 120 -999
2011-03-03 03:56:30 51°13.664 2°55.959 125.7 0.1 61 -999
2011-03-03 03:56:35 51°13.663 2°55.959 125.6 0.1 127 -999
2011-03-03 03:56:40 51°13.663 2°55.959 125.6 0.1 34 -999
2011-03-03 03:56:45 51°13.664 2°55.959 125.6 0.2 8 -999
2011-03-03 03:56:50 51°13.663 2°55.959 125.6 0.1 8 -999
2011-03-03 03:56:55 51°13.663 2°55.959 125.6 -999 34 -999
2011-03-03 03:57:00 51°13.663 2°55.959 125.7 0.1 37 -999
2011-03-03 03:57:05 51°13.662 2°55.959 125.7 0.1 174 -999
2011-03-03 03:57:10 51°13.663 2°55.959 125.7 -999 61 -999
2011-03-03 03:57:15 51°13.662 2°55.959 125.7 0.1 180 -999
2011-03-03 03:57:20 51°13.663 2°55.959 125.8 0.1 44 -999
2011-03-03 03:57:25 51°13.663 2°55.959 125.8 0.2 173 -999
2011-03-03 03:57:30 51°13.662 2°55.959 125.8 0.1 176 -999
2011-03-03 03:57:35 51°13.663 2°55.959 125.8 -999 167 -999
2011-03-03 03:57:40 51°13.662 2°55.959 125.8 -999 -999 -999
2011-03-03 03:57:45 51°13.663 2°55.959 125.8 -999 58 -999
2011-03-03 03:57:50 51°13.663 2°55.959 125.8 0.1 54 -999
2011-03-03 03:57:55 51°13.662 2°55.959 125.8 0.1 187 -999
2011-03-03 03:58:00 51°13.662 2°55.959 125.7 0.2 188 -999
2011-03-03 03:58:05 51°13.662 2°55.959 125.7 0.1 178 -999
2011-03-03 03:58:10 51°13.663 2°55.959 125.7 0.1 11 -999
2011-03-03 03:58:15 51°13.663 2°55.959 125.7 0.1 5 -999
2011-03-03 03:58:20 51°13.663 2°55.959 125.7 0.1 13 -999
2011-03-03 03:58:25 51°13.663 2°55.959 125.7 -999 67 -999
2011-03-03 03:58:30 51°13.663 2°55.959 125.7 0.1 82 -999
2011-03-03 03:58:35 51°13.663 2°55.959 125.7 -999 95 -999
2011-03-03 03:58:40 51°13.663 2°55.959 125.7 -999 81 -999
2011-03-03 03:58:45 51°13.663 2°55.959 125.7 0.1 39 -999
2011-03-03 03:58:50 51°13.662 2°55.959 125.7 -999 103 -999
2011-03-03 03:58:55 51°13.663 2°55.959 125.7 0.1 17 -999
2011-03-03 03:59:00 51°13.662 2°55.959 125.7 0.1 43 -999
2011-03-03 03:59:05 51°13.662 2°55.959 125.7 0.1 52 -999
2011-03-03 03:59:10 51°13.663 2°55.959 125.7 0.2 34 -999
2011-03-03 03:59:15 51°13.663 2°55.959 125.7 0.1 49 -999
2011-03-03 03:59:20 51°13.662 2°55.959 125.7 0.1 59 -999
2011-03-03 03:59:25 51°13.662 2°55.958 125.7 -999 148 -999
2011-03-03 03:59:30 51°13.662 2°55.958 125.8 0.1 166 -999
2011-03-03 03:59:35 51°13.662 2°55.959 125.8 0.1 178 -999
2011-03-03 03:59:40 51°13.662 2°55.958 126 0.1 194 -999
2011-03-03 03:59:45 51°13.662 2°55.958 126 0.1 194 -999
2011-03-03 03:59:50 51°13.662 2°55.958 126.2 0.1 190 -999
2011-03-03 03:59:55 51°13.662 2°55.959 126.3 -999 157 -999
2011-03-03 04:00:00 51°13.662 2°55.959 126.3 0.2 34 -999
2011-03-03 04:00:05 51°13.662 2°55.959 126.4 0.1 35 -999
2011-03-03 04:00:10 51°13.662 2°55.959 126.4 0.2 54 -999
2011-03-03 04:00:15 51°13.662 2°55.959 126.4 0.2 38 -999
2011-03-03 04:00:20 51°13.662 2°55.959 126.5 0.1 48 -999
2011-03-03 04:00:25 51°13.662 2°55.959 126.5 -999 85 -999
2011-03-03 04:00:30 51°13.662 2°55.959 126.5 0.1 169 -999
2011-03-03 04:00:35 51°13.662 2°55.959 126.5 0.1 195 -999
2011-03-03 04:00:40 51°13.662 2°55.958 126.5 0.1 194 -999
2011-03-03 04:00:45 51°13.662 2°55.959 126.5 0.1 99 -999
2011-03-03 04:00:50 51°13.662 2°55.959 126.5 0.1 215 -999
2011-03-03 04:00:55 51°13.662 2°55.959 126.5 0.1 195 -999
2011-03-03 04:01:00 51°13.662 2°55.959 126.5 0.1 176 -999
2011-03-03 04:01:05 51°13.663 2°55.959 126.5 0.1 40 -999
2011-03-03 04:01:10 51°13.663 2°55.959 126.4 0.1 42 -999
2011-03-03 04:01:15 51°13.663 2°55.959 126.4 0.1 41 -999
2011-03-03 04:01:20 51°13.663 2°55.959 126.3 0.1 184 -999
2011-03-03 04:01:25 51°13.663 2°55.959 126.3 -999 137 -999
2011-03-03 04:01:30 51°13.663 2°55.959 126.2 0.1 68 -999
2011-03-03 04:01:35 51°13.664 2°55.959 126.2 0.1 48 -999
2011-03-03 04:01:40 51°13.664 2°55.959 126.2 0.2 44 -999
2011-03-03 04:01:45 51°13.664 2°55.959 126.1 0.1 185 -999
2011-03-03 04:01:50 51°13.664 2°55.959 126 -999 98 -999
2011-03-03 04:01:55 51°13.664 2°55.959 126 0.1 184 -999
2011-03-03 04:02:00 51°13.664 2°55.959 126 0.1 198 -999
2011-03-03 04:02:05 51°13.664 2°55.959 126 -999 175 -999
2011-03-03 04:02:10 51°13.664 2°55.959 126 -999 85 -999
2011-03-03 04:02:15 51°13.665 2°55.96 126 0.2 42 -999
2011-03-03 04:02:20 51°13.665 2°55.96 126 0.1 46 -999
2011-03-03 04:02:25 51°13.665 2°55.96 126 0.1 37 -999
2011-03-03 04:02:30 51°13.665 2°55.96 126 0.2 37 -999
2011-03-03 04:02:35 51°13.665 2°55.96 126 -999 163 -999
2011-03-03 04:02:40 51°13.664 2°55.959 126 0.2 189 -999
2011-03-03 04:02:45 51°13.665 2°55.96 126 0.1 188 -999
2011-03-03 04:02:50 51°13.665 2°55.96 126 0.1 38 -999
2011-03-03 04:02:55 51°13.665 2°55.96 126.1 -999 73 -999
2011-03-03 04:03:00 51°13.664 2°55.959 126.1 0.3 201 -999
2011-03-03 04:03:05 51°13.664 2°55.959 126 0.3 202 -999
2011-03-03 04:03:10 51°13.665 2°55.96 126 -999 43 -999
2011-03-03 04:03:15 51°13.664 2°55.96 126 0.1 203 -999
2011-03-03 04:03:20 51°13.664 2°55.96 126 0.1 209 -999
2011-03-03 04:03:25 51°13.664 2°55.96 126 0.1 197 -999
2011-03-03 04:03:30 51°13.664 2°55.96 126 -999 117 -999
2011-03-03 04:03:35 51°13.665 2°55.96 126 0.1 51 -999
2011-03-03 04:03:40 51°13.665 2°55.96 126.1 -999 87 -999
2011-03-03 04:03:45 51°13.664 2°55.96 126.1 -999 84 -999
2011-03-03 04:03:50 51°13.664 2°55.96 126.1 0.1 43 -999
2011-03-03 04:03:55 51°13.664 2°55.96 126.1 0.1 49 -999
2011-03-03 04:04:00 51°13.664 2°55.96 126.1 0.1 55 -999
2011-03-03 04:04:05 51°13.664 2°55.959 126.1 0.1 202 -999
2011-03-03 04:04:10 51°13.664 2°55.959 126 0.1 197 -999
2011-03-03 04:04:15 51°13.664 2°55.96 126 -999 164 -999
2011-03-03 04:04:20 51°13.664 2°55.96 126 -999 112 -999
2011-03-03 04:04:25 51°13.664 2°55.96 126.2 0.1 98 -999
2011-03-03 04:04:30 51°13.664 2°55.96 126.3 0.1 168 -999
2011-03-03 04:04:35 51°13.664 2°55.959 126.3 0.1 195 -999
2011-03-03 04:04:40 51°13.663 2°55.959 126.4 0.2 204 -999
2011-03-03 04:04:45 51°13.664 2°55.959 126.5 0.1 182 -999
2011-03-03 04:04:50 51°13.664 2°55.96 126.5 -999 113 -999
2011-03-03 04:04:55 51°13.664 2°55.96 126.6 -999 63 -999
2011-03-03 04:05:00 51°13.664 2°55.959 126.8 0.1 193 -999
2011-03-03 04:05:05 51°13.664 2°55.96 126.9 -999 124 -999
2011-03-03 04:05:10 51°13.664 2°55.959 126.9 0.1 216 -999
2011-03-03 04:05:15 51°13.663 2°55.959 126.9 0.2 206 -999
2011-03-03 04:05:20 51°13.664 2°55.959 126.9 -999 58 -999
2011-03-03 04:05:25 51°13.664 2°55.959 126.8 -999 161 -999
2011-03-03 04:05:30 51°13.663 2°55.959 126.6 -999 205 -999
2011-03-03 04:05:35 51°13.663 2°55.959 126.5 0.1 209 -999
2011-03-03 04:05:40 51°13.664 2°55.959 126.4 0.1 44 -999
2011-03-03 04:05:45 51°13.664 2°55.959 126.3 0.1 54 -999
2011-03-03 04:05:50 51°13.664 2°55.959 126.2 -999 144 -999
2011-03-03 04:05:55 51°13.663 2°55.959 126.1 -999 126 -999
2011-03-03 04:06:00 51°13.664 2°55.959 126.1 0.1 47 -999
2011-03-03 04:06:05 51°13.664 2°55.959 126.1 0.1 40 -999
2011-03-03 04:06:10 51°13.663 2°55.959 126.1 0.1 191 -999
2011-03-03 04:06:15 51°13.663 2°55.959 126.1 0.2 198 -999
2011-03-03 04:06:20 51°13.663 2°55.959 126.1 -999 100 -999
2011-03-03 04:06:25 51°13.663 2°55.959 126.1 -999 106 -999
2011-03-03 04:06:30 51°13.663 2°55.959 126.1 0.1 192 -999
2011-03-03 04:06:35 51°13.663 2°55.96 126.1 0.1 199 -999
2011-03-03 04:06:40 51°13.662 2°55.96 126.1 0.2 199 -999
2011-03-03 04:06:45 51°13.663 2°55.96 126.1 0.1 178 -999
2011-03-03 04:06:50 51°13.663 2°55.96 126.1 -999 95 -999
2011-03-03 04:06:55 51°13.663 2°55.96 126.1 0.1 174 -999
2011-03-03 04:07:00 51°13.662 2°55.96 126.1 0.2 197 -999
2011-03-03 04:07:05 51°13.663 2°55.96 126.1 -999 124 -999
2011-03-03 04:07:10 51°13.663 2°55.959 126.1 0.1 41 -999
2011-03-03 04:07:15 51°13.663 2°55.959 126.1 0.1 39 -999
2011-03-03 04:07:20 51°13.663 2°55.959 126.1 0.1 60 -999
2011-03-03 04:07:25 51°13.663 2°55.959 126.1 -999 177 -999
2011-03-03 04:07:30 51°13.663 2°55.96 126.1 -999 64 -999
2011-03-03 04:07:35 51°13.663 2°55.96 126.1 0.1 40 -999
2011-03-03 04:07:40 51°13.663 2°55.959 126.1 0.1 47 -999
2011-03-03 04:07:45 51°13.663 2°55.959 126.1 0.2 204 -999
2011-03-03 04:07:50 51°13.663 2°55.959 126.1 -999 139 -999
2011-03-03 04:07:55 51°13.663 2°55.959 126.1 -999 82 -999
2011-03-03 04:08:00 51°13.663 2°55.96 126.2 -999 76 -999
2011-03-03 04:08:05 51°13.664 2°55.96 126.2 0.2 45 -999
2011-03-03 04:08:10 51°13.664 2°55.96 126.2 0.1 46 -999
2011-03-03 04:08:15 51°13.664 2°55.96 126.2 0.1 42 -999
2011-03-03 04:08:20 51°13.664 2°55.96 126.3 0.1 82 -999
2011-03-03 04:08:25 51°13.663 2°55.96 126.4 0.1 200 -999
2011-03-03 04:08:30 51°13.664 2°55.96 126.4 -999 149 -999
2011-03-03 04:08:35 51°13.664 2°55.96 126.4 0.1 53 -999
2011-03-03 04:08:40 51°13.664 2°55.96 126.4 0.1 144 -999
2011-03-03 04:08:45 51°13.664 2°55.96 126.5 0.1 54 -999
2011-03-03 04:08:50 51°13.664 2°55.96 126.5 0.1 202 -999
2011-03-03 04:08:55 51°13.664 2°55.959 126.5 0.1 202 -999
2011-03-03 04:09:00 51°13.664 2°55.96 126.5 0.1 190 -999
2011-03-03 04:09:05 51°13.664 2°55.96 126.5 -999 139 -999
2011-03-03 04:09:10 51°13.664 2°55.96 126.5 0.1 50 -999
2011-03-03 04:09:15 51°13.664 2°55.96 126.4 -999 191 -999
2011-03-03 04:09:20 51°13.664 2°55.96 126.4 0.1 196 -999
2011-03-03 04:09:25 51°13.665 2°55.96 126.3 0.1 185 -999
2011-03-03 04:09:30 51°13.665 2°55.96 126.3 0.1 194 -999
2011-03-03 04:09:35 51°13.665 2°55.96 126.3 -999 189 -999
2011-03-03 04:09:40 51°13.665 2°55.96 126.3 0.1 46 -999
2011-03-03 04:09:45 51°13.665 2°55.96 126.3 -999 111 -999
2011-03-03 04:09:50 51°13.665 2°55.96 126.3 -999 150 -999
2011-03-03 04:09:55 51°13.665 2°55.959 126.3 0.1 196 -999
2011-03-03 04:10:00 51°13.665 2°55.96 126.3 -999 162 -999
2011-03-03 04:10:05 51°13.666 2°55.96 126.3 0.2 39 -999
2011-03-03 04:10:10 51°13.665 2°55.959 126.3 0.1 173 -999
2011-03-03 04:10:15 51°13.665 2°55.959 126.3 0.1 194 -999
2011-03-03 04:10:20 51°13.665 2°55.959 126.3 -999 77 -999
2011-03-03 04:10:25 51°13.665 2°55.959 126.3 0.1 180 -999
2011-03-03 04:10:30 51°13.665 2°55.959 126.3 0.2 200 -999
2011-03-03 04:10:35 51°13.665 2°55.959 126.3 0.1 49 -999
2011-03-03 04:10:40 51°13.665 2°55.959 126.3 0.1 67 -999
2011-03-03 04:10:45 51°13.665 2°55.959 126.3 0.1 82 -999
2011-03-03 04:10:50 51°13.665 2°55.959 126.2 -999 66 -999
2011-03-03 04:10:55 51°13.665 2°55.959 126.1 0.1 141 -999
2011-03-03 04:11:00 51°13.665 2°55.959 126.1 0.1 188 -999
2011-03-03 04:11:05 51°13.665 2°55.959 126 0.1 187 -999
2011-03-03 04:11:10 51°13.665 2°55.959 126 -999 130 -999
2011-03-03 04:11:15 51°13.665 2°55.959 125.9 0.1 194 -999
2011-03-03 04:11:20 51°13.665 2°55.959 125.9 -999 37 -999
2011-03-03 04:11:25 51°13.665 2°55.959 125.8 0.1 78 -999
2011-03-03 04:11:30 51°13.665 2°55.959 125.8 0.1 197 -999
2011-03-03 04:11:35 51°13.665 2°55.959 125.8 0.1 87 -999
2011-03-03 04:11:40 51°13.665 2°55.959 125.8 0.1 173 -999
2011-03-03 04:11:45 51°13.665 2°55.959 125.9 0.1 46 -999
2011-03-03 04:11:50 51°13.665 2°55.959 125.9 0.1 61 -999
2011-03-03 04:11:55 51°13.665 2°55.959 125.9 0.1 103 -999
2011-03-03 04:12:00 51°13.665 2°55.959 126 0.1 184 -999
2011-03-03 04:12:05 51°13.665 2°55.959 126 -999 181 -999
2011-03-03 04:12:10 51°13.665 2°55.959 126 0.1 190 -999
2011-03-03 04:12:15 51°13.665 2°55.959 126 0.1 47 -999
2011-03-03 04:12:20 51°13.665 2°55.959 126 -999 118 -999
2011-03-03 04:12:25 51°13.665 2°55.959 126.1 0.1 185 -999
2011-03-03 04:12:30 51°13.665 2°55.959 126.1 -999 192 -999
2011-03-03 04:12:35 51°13.665 2°55.959 126.1 -999 118 -999
2011-03-03 04:12:40 51°13.665 2°55.958 126.1 0.1 202 -999
2011-03-03 04:12:45 51°13.665 2°55.959 126.1 -999 88 -999
2011-03-03 04:12:50 51°13.665 2°55.959 126.1 0.1 43 -999
2011-03-03 04:12:55 51°13.665 2°55.959 126.1 0.1 50 -999
2011-03-03 04:13:00 51°13.665 2°55.959 126.1 0.1 112 -999
2011-03-03 04:13:05 51°13.665 2°55.958 126.1 0.1 179 -999
2011-03-03 04:13:10 51°13.665 2°55.958 126.1 0.1 204 -999
2011-03-03 04:13:15 51°13.665 2°55.958 126.1 -999 232 -999
2011-03-03 04:13:20 51°13.665 2°55.958 126.1 0.1 197 -999
2011-03-03 04:13:25 51°13.664 2°55.958 126.1 0.2 203 -999
2011-03-03 04:13:30 51°13.665 2°55.959 126.1 -999 206 -999
2011-03-03 04:13:35 51°13.665 2°55.959 126.1 -999 68 -999
2011-03-03 04:13:40 51°13.665 2°55.959 126.1 -999 170 -999
2011-03-03 04:13:45 51°13.665 2°55.959 126.1 -999 182 -999
2011-03-03 04:13:50 51°13.665 2°55.959 126.1 0.1 39 -999
2011-03-03 04:13:55 51°13.664 2°55.958 126.1 0.1 195 -999
2011-03-03 04:14:00 51°13.664 2°55.958 126.1 0.1 195 -999
2011-03-03 04:14:05 51°13.664 2°55.959 126.1 0.1 44 -999
2011-03-03 04:14:10 51°13.664 2°55.958 126.2 0.1 54 -999
2011-03-03 04:14:15 51°13.664 2°55.958 126.2 0.2 204 -999
2011-03-03 04:14:20 51°13.663 2°55.958 126.2 0.1 189 -999
2011-03-03 04:14:25 51°13.663 2°55.958 126.2 -999 195 -999
2011-03-03 04:14:30 51°13.663 2°55.958 126.2 -999 39 -999
2011-03-03 04:14:35 51°13.663 2°55.958 126.3 0.1 52 -999
2011-03-03 04:14:40 51°13.663 2°55.958 126.2 0.1 140 -999
2011-03-03 04:14:45 51°13.662 2°55.958 126.2 -999 180 -999
2011-03-03 04:14:50 51°13.662 2°55.958 126.1 0.1 54 -999
2011-03-03 04:14:55 51°13.662 2°55.958 126 -999 77 -999
2011-03-03 04:15:00 51°13.662 2°55.958 125.9 0.1 187 -999
2011-03-03 04:15:05 51°13.662 2°55.958 125.9 0.1 188 -999
2011-03-03 04:15:10 51°13.662 2°55.958 125.9 0.1 180 -999
2011-03-03 04:15:15 51°13.662 2°55.958 125.9 -999 101 -999
2011-03-03 04:15:20 51°13.662 2°55.958 125.9 0.1 199 -999
2011-03-03 04:15:25 51°13.662 2°55.958 125.9 -999 126 -999
2011-03-03 04:15:30 51°13.662 2°55.958 125.9 -999 115 -999
2011-03-03 04:15:35 51°13.662 2°55.958 126 -999 151 -999
2011-03-03 04:15:40 51°13.662 2°55.958 126 -999 106 -999
2011-03-03 04:15:45 51°13.662 2°55.958 126 0.1 46 -999
2011-03-03 04:15:50 51°13.662 2°55.958 126 0.2 47 -999
2011-03-03 04:15:55 51°13.662 2°55.958 126 -999 96 -999
2011-03-03 04:16:00 51°13.662 2°55.958 126 -999 51 -999
2011-03-03 04:16:05 51°13.662 2°55.957 126 -999 72 -999
2011-03-03 04:16:10 51°13.662 2°55.958 126 0.1 62 -999
2011-03-03 04:16:15 51°13.662 2°55.957 126 0.1 179 -999
2011-03-03 04:16:20 51°13.662 2°55.957 126.1 -999 232 -999
2011-03-03 04:16:25 51°13.662 2°55.957 126.1 0.1 183 -999
2011-03-03 04:16:30 51°13.662 2°55.957 126.1 0.1 193 -999
2011-03-03 04:16:35 51°13.662 2°55.958 126.2 0.1 53 -999
2011-03-03 04:16:40 51°13.662 2°55.958 126.2 0.1 44 -999
2011-03-03 04:16:45 51°13.662 2°55.958 126.2 -999 72 -999
2011-03-03 04:16:50 51°13.662 2°55.957 126.2 0.1 209 -999
2011-03-03 04:16:55 51°13.662 2°55.957 126.2 0.2 203 -999
2011-03-03 04:17:00 51°13.662 2°55.958 126.2 0.1 214 -999
2011-03-03 04:17:05 51°13.662 2°55.957 126.2 0.1 171 -999
2011-03-03 04:17:10 51°13.662 2°55.957 126.2 0.1 173 -999
2011-03-03 04:17:15 51°13.662 2°55.958 126.2 0.1 69 -999
2011-03-03 04:17:20 51°13.662 2°55.958 126.2 0.1 54 -999
2011-03-03 04:17:25 51°13.662 2°55.958 126.2 -999 179 -999
2011-03-03 04:17:30 51°13.662 2°55.958 126.2 -999 80 -999
2011-03-03 04:17:35 51°13.662 2°55.958 126.2 -999 196 -999
2011-03-03 04:17:40 51°13.662 2°55.958 126.2 0.1 192 -999
2011-03-03 04:17:45 51°13.662 2°55.958 126.2 0.1 218 -999
2011-03-03 04:17:50 51°13.662 2°55.959 126.2 0.1 51 -999
2011-03-03 04:17:55 51°13.662 2°55.959 126.2 0.1 62 -999
2011-03-03 04:18:00 51°13.662 2°55.959 126.2 -999 73 -999
2011-03-03 04:18:05 51°13.662 2°55.959 126.2 -999 123 -999
2011-03-03 04:18:10 51°13.662 2°55.959 126.2 0.1 181 -999
2011-03-03 04:18:15 51°13.662 2°55.959 126.2 0.2 215 -999
2011-03-03 04:18:20 51°13.662 2°55.959 126.2 -999 196 -999
2011-03-03 04:18:25 51°13.663 2°55.959 126.3 0.1 49 -999
2011-03-03 04:18:30 51°13.663 2°55.959 126.3 0.2 56 -999
2011-03-03 04:18:35 51°13.662 2°55.959 126.3 0.1 164 -999
2011-03-03 04:18:40 51°13.663 2°55.959 126.3 0.1 199 -999
2011-03-03 04:18:45 51°13.663 2°55.959 126.3 -999 161 -999
2011-03-03 04:18:50 51°13.663 2°55.959 126.3 -999 43 -999
2011-03-03 04:18:55 51°13.663 2°55.959 126.3 -999 58 -999
2011-03-03 04:19:00 51°13.663 2°55.959 126.3 -999 154 -999
2011-03-03 04:19:05 51°13.663 2°55.959 126.3 0.1 185 -999
2011-03-03 04:19:10 51°13.663 2°55.959 126.3 0.1 193 -999
2011-03-03 04:19:15 51°13.663 2°55.959 126.3 0.1 193 -999
2011-03-03 04:19:20 51°13.663 2°55.959 126.3 0.1 186 -999
2011-03-03 04:19:25 51°13.664 2°55.96 126.3 -999 109 -999
2011-03-03 04:19:30 51°13.664 2°55.96 126.3 0.1 65 -999
2011-03-03 04:19:35 51°13.664 2°55.96 126.3 0.1 132 -999
2011-03-03 04:19:40 51°13.664 2°55.96 126.3 0.1 173 -999
2011-03-03 04:19:45 51°13.664 2°55.96 126.3 0.1 192 -999
2011-03-03 04:19:50 51°13.664 2°55.96 126.4 -999 93 -999
2011-03-03 04:19:55 51°13.664 2°55.96 126.4 0.1 169 -999
2011-03-03 04:20:00 51°13.664 2°55.96 126.4 0.2 48 -999
2011-03-03 04:20:05 51°13.664 2°55.96 126.4 0.1 55 -999
2011-03-03 04:20:10 51°13.663 2°55.96 126.4 0.1 156 -999
2011-03-03 04:20:15 51°13.663 2°55.959 126.5 0.2 205 -999
2011-03-03 04:20:20 51°13.664 2°55.96 126.5 -999 84 -999
2011-03-03 04:20:25 51°13.664 2°55.96 126.5 0.1 64 -999
2011-03-03 04:20:30 51°13.663 2°55.96 126.6 0.1 169 -999
2011-03-03 04:20:35 51°13.663 2°55.96 126.6 -999 111 -999
2011-03-03 04:20:40 51°13.663 2°55.96 126.7 0.1 78 -999
2011-03-03 04:20:45 51°13.663 2°55.96 126.7 -999 149 -999
2011-03-03 04:20:50 51°13.663 2°55.96 126.7 0.1 169 -999
2011-03-03 04:20:55 51°13.663 2°55.96 126.7 -999 69 -999
2011-03-03 04:21:00 51°13.663 2°55.959 126.7 -999 109 -999
2011-03-03 04:21:05 51°13.662 2°55.959 126.7 0.1 190 -999
2011-03-03 04:21:10 51°13.662 2°55.959 126.7 0.1 197 -999
2011-03-03 04:21:15 51°13.663 2°55.959 126.7 0.1 158 -999
2011-03-03 04:21:20 51°13.663 2°55.96 126.7 0.1 88 -999
2011-03-03 04:21:25 51°13.663 2°55.96 126.7 0.1 138 -999
2011-03-03 04:21:30 51°13.663 2°55.96 126.7 0.1 52 -999
2011-03-03 04:21:35 51°13.663 2°55.96 126.7 0.1 66 -999
2011-03-03 04:21:40 51°13.663 2°55.96 126.7 -999 67 -999
2011-03-03 04:21:45 51°13.663 2°55.96 126.7 -999 179 -999
2011-03-03 04:21:50 51°13.662 2°55.959 126.7 0.1 213 -999
2011-03-03 04:21:55 51°13.662 2°55.959 126.7 -999 205 -999
2011-03-03 04:22:00 51°13.662 2°55.959 126.7 -999 177 -999
2011-03-03 04:22:05 51°13.662 2°55.959 126.7 -999 103 -999
2011-03-03 04:22:10 51°13.662 2°55.959 126.7 0.1 44 -999
2011-03-03 04:22:15 51°13.662 2°55.959 126.7 0.2 198 -999
2011-03-03 04:22:20 51°13.662 2°55.959 126.7 0.1 211 -999
2011-03-03 04:22:25 51°13.662 2°55.959 126.7 0.1 50 -999
2011-03-03 04:22:30 51°13.662 2°55.959 126.7 0.1 51 -999
2011-03-03 04:22:35 51°13.663 2°55.959 126.7 0.1 51 -999
2011-03-03 04:22:40 51°13.663 2°55.959 126.7 0.1 66 -999
2011-03-03 04:22:45 51°13.662 2°55.959 126.7 -999 119 -999
2011-03-03 04:22:50 51°13.662 2°55.958 126.7 0.1 169 -999
2011-03-03 04:22:55 51°13.662 2°55.958 126.7 0.1 174 -999
2011-03-03 04:23:00 51°13.662 2°55.958 126.7 0.1 64 -999
2011-03-03 04:23:05 51°13.662 2°55.958 126.7 0.1 98 -999
2011-03-03 04:23:10 51°13.662 2°55.958 126.7 0.1 96 -999
2011-03-03 04:23:15 51°13.662 2°55.959 126.7 0.1 73 -999
2011-03-03 04:23:20 51°13.662 2°55.959 126.8 -999 83 -999
2011-03-03 04:23:25 51°13.662 2°55.958 126.8 -999 197 -999
2011-03-03 04:23:30 51°13.662 2°55.958 126.8 0.1 214 -999
2011-03-03 04:23:35 51°13.662 2°55.958 126.8 0.1 225 -999
2011-03-03 04:23:40 51°13.662 2°55.959 126.8 -999 333 -999
2011-03-03 04:23:45 51°13.663 2°55.959 126.8 0.1 65 -999
2011-03-03 04:23:50 51°13.663 2°55.958 126.8 0.1 111 -999
2011-03-03 04:23:55 51°13.663 2°55.959 126.8 -999 145 -999
2011-03-03 04:24:00 51°13.663 2°55.959 126.8 -999 160 -999
2011-03-03 04:24:05 51°13.663 2°55.958 126.8 -999 144 -999
2011-03-03 04:24:10 51°13.663 2°55.959 126.8 -999 178 -999
2011-03-03 04:24:15 51°13.663 2°55.959 126.8 -999 77 -999
2011-03-03 04:24:20 51°13.663 2°55.959 126.8 0.1 44 -999
2011-03-03 04:24:25 51°13.663 2°55.959 126.9 0.2 48 -999
2011-03-03 04:24:30 51°13.663 2°55.959 126.9 0.2 46 -999
2011-03-03 04:24:35 51°13.663 2°55.959 126.9 0.2 54 -999
2011-03-03 04:24:40 51°13.663 2°55.959 126.9 0.1 52 -999
2011-03-03 04:24:45 51°13.662 2°55.959 126.9 0.1 97 -999
2011-03-03 04:24:50 51°13.662 2°55.959 126.9 0.1 98 -999
2011-03-03 04:24:55 51°13.662 2°55.959 127 0.1 63 -999
2011-03-03 04:25:00 51°13.662 2°55.959 127 -999 61 -999
2011-03-03 04:25:05 51°13.662 2°55.959 127 0.1 50 -999
2011-03-03 04:25:10 51°13.662 2°55.958 127 -999 71 -999
2011-03-03 04:25:15 51°13.662 2°55.958 127 -999 125 -999
2011-03-03 04:25:20 51°13.662 2°55.958 127 -999 179 -999
2011-03-03 04:25:25 51°13.662 2°55.959 127 0.2 54 -999
2011-03-03 04:25:30 51°13.662 2°55.959 127 0.2 61 -999
2011-03-03 04:25:35 51°13.662 2°55.958 127 -999 162 -999
2011-03-03 04:25:40 51°13.662 2°55.958 127 0.1 56 -999
2011-03-03 04:25:45 51°13.662 2°55.958 127 0.1 91 -999
2011-03-03 04:25:50 51°13.662 2°55.958 127 0.1 125 -999
2011-03-03 04:25:55 51°13.661 2°55.958 127 0.1 186 -999
2011-03-03 04:26:00 51°13.661 2°55.958 126.9 0.1 179 -999
2011-03-03 04:26:05 51°13.661 2°55.958 126.9 0.1 124 -999
2011-03-03 04:26:10 51°13.661 2°55.958 126.9 0.1 191 -999
2011-03-03 04:26:15 51°13.662 2°55.958 126.8 -999 200 -999
2011-03-03 04:26:20 51°13.661 2°55.958 126.7 0.1 218 -999
2011-03-03 04:26:25 51°13.662 2°55.958 126.7 -999 121 -999
2011-03-03 04:26:30 51°13.661 2°55.958 126.7 0.1 196 -999
2011-03-03 04:26:35 51°13.661 2°55.958 126.7 -999 214 -999
2011-03-03 04:26:40 51°13.661 2°55.958 126.7 0.1 176 -999
2011-03-03 04:26:45 51°13.661 2°55.958 126.7 0.1 180 -999
2011-03-03 04:26:50 51°13.661 2°55.958 126.7 0.1 217 -999
2011-03-03 04:26:55 51°13.661 2°55.958 126.7 -999 259 -999
2011-03-03 04:27:00 51°13.661 2°55.958 126.7 -999 52 -999
2011-03-03 04:27:05 51°13.661 2°55.958 126.7 0.1 53 -999
2011-03-03 04:27:10 51°13.661 2°55.958 126.7 0.1 59 -999
2011-03-03 04:27:15 51°13.661 2°55.958 126.7 -999 167 -999
2011-03-03 04:27:20 51°13.661 2°55.958 126.7 0.1 197 -999
2011-03-03 04:27:25 51°13.661 2°55.958 126.7 0.1 196 -999
2011-03-03 04:27:30 51°13.661 2°55.958 126.7 0.1 193 -999
2011-03-03 04:27:35 51°13.661 2°55.958 126.7 0.1 79 -999
2011-03-03 04:27:40 51°13.661 2°55.958 126.7 0.1 65 -999
2011-03-03 04:27:45 51°13.661 2°55.958 126.7 0.1 63 -999
2011-03-03 04:27:50 51°13.661 2°55.958 126.7 0.1 201 -999
2011-03-03 04:27:55 51°13.661 2°55.958 126.7 0.1 202 -999
2011-03-03 04:28:00 51°13.661 2°55.958 126.7 -999 222 -999
2011-03-03 04:28:05 51°13.66 2°55.958 126.7 0.1 179 -999
2011-03-03 04:28:10 51°13.66 2°55.958 126.7 0.1 185 -999
2011-03-03 04:28:15 51°13.661 2°55.958 126.7 -999 70 -999
2011-03-03 04:28:20 51°13.661 2°55.958 126.7 0.1 48 -999
2011-03-03 04:28:25 51°13.661 2°55.958 126.7 -999 106 -999
2011-03-03 04:28:30 51°13.661 2°55.958 126.7 0.1 220 -999
2011-03-03 04:28:35 51°13.661 2°55.958 126.7 0.1 356 -999
2011-03-03 04:28:40 51°13.661 2°55.957 126.8 0.1 281 -999
2011-03-03 04:28:45 51°13.661 2°55.957 126.8 0.1 180 -999
2011-03-03 04:28:50 51°13.661 2°55.958 126.8 0.1 113 -999
2011-03-03 04:28:55 51°13.661 2°55.958 126.8 0.1 81 -999
2011-03-03 04:29:00 51°13.661 2°55.958 126.8 0.1 57 -999
2011-03-03 04:29:05 51°13.661 2°55.958 126.9 -999 336 -999
2011-03-03 04:29:10 51°13.661 2°55.958 126.9 -999 46 -999
2011-03-03 04:29:15 51°13.661 2°55.958 127 -999 89 -999
2011-03-03 04:29:20 51°13.661 2°55.957 127 0.1 163 -999
2011-03-03 04:29:25 51°13.661 2°55.958 127 0.1 50 -999
2011-03-03 04:29:30 51°13.661 2°55.958 127 0.1 192 -999
2011-03-03 04:29:35 51°13.66 2°55.957 127 0.2 193 -999
2011-03-03 04:29:40 51°13.661 2°55.958 127 0.1 184 -999
2011-03-03 04:29:45 51°13.661 2°55.958 127 -999 122 -999
2011-03-03 04:29:50 51°13.662 2°55.958 127 0.1 39 -999
2011-03-03 04:29:55 51°13.661 2°55.958 127 0.1 126 -999
2011-03-03 04:30:00 51°13.661 2°55.958 127.1 0.1 198 -999
2011-03-03 04:30:05 51°13.661 2°55.958 127.1 0.1 230 -999
2011-03-03 04:30:10 51°13.661 2°55.958 127.1 0.1 216 -999
2011-03-03 04:30:15 51°13.662 2°55.959 127.1 -999 168 -999
2011-03-03 04:30:20 51°13.662 2°55.959 127.1 0.1 65 -999
2011-03-03 04:30:25 51°13.662 2°55.959 127 -999 131 -999
2011-03-03 04:30:30 51°13.662 2°55.959 127 0.1 214 -999
2011-03-03 04:30:35 51°13.662 2°55.959 126.9 0.1 221 -999
2011-03-03 04:30:40 51°13.662 2°55.959 126.9 0.2 236 -999
2011-03-03 04:30:45 51°13.662 2°55.959 126.9 0.1 248 -999
2011-03-03 04:30:50 51°13.662 2°55.959 126.9 -999 338 -999
2011-03-03 04:30:55 51°13.662 2°55.959 126.9 0.1 24 -999
2011-03-03 04:31:00 51°13.662 2°55.959 126.9 0.1 80 -999
2011-03-03 04:31:05 51°13.662 2°55.959 126.9 0.1 180 -999
2011-03-03 04:31:10 51°13.662 2°55.959 126.9 0.1 200 -999
2011-03-03 04:31:15 51°13.662 2°55.959 126.9 -999 210 -999
2011-03-03 04:31:20 51°13.662 2°55.96 126.9 0.1 26 -999
2011-03-03 04:31:25 51°13.662 2°55.96 126.9 0.1 62 -999
2011-03-03 04:31:30 51°13.662 2°55.96 126.9 -999 106 -999
2011-03-03 04:31:35 51°13.662 2°55.96 126.9 0.1 53 -999
2011-03-03 04:31:40 51°13.662 2°55.96 126.9 0.1 55 -999
2011-03-03 04:31:45 51°13.662 2°55.96 126.9 0.1 210 -999
2011-03-03 04:31:50 51°13.662 2°55.96 126.9 -999 161 -999
2011-03-03 04:31:55 51°13.662 2°55.96 126.9 0.1 118 -999
2011-03-03 04:32:00 51°13.662 2°55.96 126.9 0.1 107 -999
2011-03-03 04:32:05 51°13.662 2°55.96 126.9 0.1 204 -999
2011-03-03 04:32:10 51°13.662 2°55.959 126.9 0.2 212 -999
2011-03-03 04:32:15 51°13.662 2°55.96 126.9 0.2 213 -999
2011-03-03 04:32:20 51°13.662 2°55.96 126.9 0.1 209 -999
2011-03-03 04:32:25 51°13.663 2°55.96 126.9 0.1 198 -999
2011-03-03 04:32:30 51°13.663 2°55.96 126.9 -999 111 -999
2011-03-03 04:32:35 51°13.663 2°55.96 126.9 0.1 64 -999
2011-03-03 04:32:40 51°13.662 2°55.96 126.9 0.1 188 -999
2011-03-03 04:32:45 51°13.663 2°55.96 126.9 -999 144 -999
2011-03-03 04:32:50 51°13.663 2°55.96 126.9 0.1 87 -999
2011-03-03 04:32:55 51°13.663 2°55.96 126.9 0.1 184 -999
2011-03-03 04:33:00 51°13.663 2°55.96 126.9 -999 203 -999
2011-03-03 04:33:05 51°13.663 2°55.96 126.9 -999 110 -999
2011-03-03 04:33:10 51°13.663 2°55.96 126.9 -999 101 -999
2011-03-03 04:33:15 51°13.663 2°55.96 126.9 -999 168 -999
2011-03-03 04:33:20 51°13.663 2°55.96 126.9 -999 94 -999
2011-03-03 04:33:25 51°13.663 2°55.96 126.9 -999 99 -999
2011-03-03 04:33:30 51°13.663 2°55.96 126.9 0.1 55 -999
2011-03-03 04:33:35 51°13.663 2°55.96 126.9 0.1 51 -999
2011-03-03 04:33:40 51°13.663 2°55.96 126.9 -999 75 -999
2011-03-03 04:33:45 51°13.663 2°55.96 126.9 -999 213 -999
2011-03-03 04:33:50 51°13.663 2°55.959 126.9 -999 46 -999
2011-03-03 04:33:55 51°13.663 2°55.959 126.9 -999 142 -999
2011-03-03 04:34:00 51°13.663 2°55.959 126.9 -999 140 -999
2011-03-03 04:34:05 51°13.663 2°55.959 126.9 -999 63 -999
2011-03-03 04:34:10 51°13.662 2°55.959 126.9 0.1 199 -999
2011-03-03 04:34:15 51°13.662 2°55.959 126.9 0.1 198 -999
2011-03-03 04:34:20 51°13.663 2°55.959 126.9 -999 122 -999
2011-03-03 04:34:25 51°13.663 2°55.959 126.9 -999 132 -999
2011-03-03 04:34:30 51°13.662 2°55.959 126.9 0.1 210 -999
2011-03-03 04:34:35 51°13.662 2°55.959 126.9 0.1 192 -999
2011-03-03 04:34:40 51°13.663 2°55.959 126.9 -999 170 -999
2011-03-03 04:34:45 51°13.663 2°55.959 126.9 0.1 59 -999
2011-03-03 04:34:50 51°13.663 2°55.959 126.9 0.1 49 -999
2011-03-03 04:34:55 51°13.663 2°55.959 126.9 -999 135 -999
2011-03-03 04:35:00 51°13.663 2°55.959 126.9 -999 130 -999
2011-03-03 04:35:05 51°13.663 2°55.958 126.9 0.1 194 -999
2011-03-03 04:35:10 51°13.663 2°55.958 126.9 0.1 205 -999
2011-03-03 04:35:15 51°13.663 2°55.959 126.9 -999 77 -999
2011-03-03 04:35:20 51°13.663 2°55.958 126.9 0.1 200 -999
2011-03-03 04:35:25 51°13.663 2°55.958 126.9 0.1 215 -999
2011-03-03 04:35:30 51°13.663 2°55.958 126.9 -999 181 -999
2011-03-03 04:35:35 51°13.663 2°55.958 126.9 -999 183 -999
2011-03-03 04:35:40 51°13.663 2°55.958 126.9 0.1 213 -999
2011-03-03 04:35:45 51°13.663 2°55.958 126.9 -999 27 -999
2011-03-03 04:35:50 51°13.663 2°55.958 126.9 -999 192 -999
2011-03-03 04:35:55 51°13.663 2°55.958 126.9 0.1 212 -999
2011-03-03 04:36:00 51°13.663 2°55.958 126.9 -999 25 -999
2011-03-03 04:36:05 51°13.663 2°55.958 126.9 0.1 218 -999
2011-03-03 04:36:10 51°13.663 2°55.958 126.9 0.1 213 -999
2011-03-03 04:36:15 51°13.663 2°55.958 126.9 0.1 220 -999
2011-03-03 04:36:20 51°13.663 2°55.958 126.9 -999 232 -999
2011-03-03 04:36:25 51°13.663 2°55.958 126.9 -999 238 -999
2011-03-03 04:36:30 51°13.663 2°55.958 126.9 0.1 213 -999
2011-03-03 04:36:35 51°13.663 2°55.958 126.9 0.1 215 -999
2011-03-03 04:36:40 51°13.663 2°55.958 126.9 -999 218 -999
2011-03-03 04:36:45 51°13.663 2°55.958 126.9 0.1 218 -999
2011-03-03 04:36:50 51°13.663 2°55.958 126.9 -999 233 -999
2011-03-03 04:36:55 51°13.663 2°55.958 126.9 -999 233 -999
2011-03-03 04:37:00 51°13.663 2°55.958 126.9 0.1 45 -999
2011-03-03 04:37:05 51°13.663 2°55.958 126.9 -999 58 -999
2011-03-03 04:37:10 51°13.663 2°55.957 126.9 -999 207 -999
2011-03-03 04:37:15 51°13.663 2°55.957 126.9 -999 203 -999
2011-03-03 04:37:20 51°13.663 2°55.957 126.9 -999 211 -999
2011-03-03 04:37:25 51°13.663 2°55.958 126.9 0.1 29 -999
2011-03-03 04:37:30 51°13.663 2°55.957 126.9 -999 4 -999
2011-03-03 04:37:35 51°13.663 2°55.957 126.9 -999 193 -999
2011-03-03 04:37:40 51°13.663 2°55.957 126.9 0.1 43 -999
2011-03-03 04:37:45 51°13.663 2°55.957 126.9 -999 90 -999
2011-03-03 04:37:50 51°13.663 2°55.957 126.9 -999 203 -999
2011-03-03 04:37:55 51°13.663 2°55.957 126.9 -999 224 -999
2011-03-03 04:38:00 51°13.663 2°55.957 126.9 -999 213 -999
2011-03-03 04:38:05 51°13.663 2°55.957 126.9 -999 248 -999
2011-03-03 04:38:10 51°13.663 2°55.957 126.9 -999 176 -999
2011-03-03 04:38:15 51°13.663 2°55.957 126.9 0.1 177 -999
2011-03-03 04:38:20 51°13.663 2°55.957 126.9 0.1 222 -999
2011-03-03 04:38:25 51°13.663 2°55.957 126.9 0.1 219 -999
2011-03-03 04:38:30 51°13.663 2°55.957 126.9 0.1 215 -999
2011-03-03 04:38:35 51°13.663 2°55.957 126.9 -999 197 -999
2011-03-03 04:38:40 51°13.663 2°55.957 126.9 -999 50 -999
2011-03-03 04:38:45 51°13.663 2°55.957 126.9 -999 125 -999
2011-03-03 04:38:50 51°13.663 2°55.957 126.9 0.1 198 -999
2011-03-03 04:38:55 51°13.663 2°55.957 126.9 0.1 207 -999
2011-03-03 04:39:00 51°13.663 2°55.957 126.9 0.1 209 -999
2011-03-03 04:39:05 51°13.663 2°55.957 126.9 0.1 246 -999
2011-03-03 04:39:10 51°13.663 2°55.957 126.9 -999 222 -999
2011-03-03 04:39:15 51°13.663 2°55.957 126.9 0.1 221 -999
2011-03-03 04:39:20 51°13.663 2°55.957 126.9 -999 225 -999
2011-03-03 04:39:25 51°13.663 2°55.957 126.9 0.1 205 -999
2011-03-03 04:39:30 51°13.663 2°55.957 126.9 0.1 213 -999
2011-03-03 04:39:35 51°13.663 2°55.957 126.9 0.1 208 -999
2011-03-03 04:39:40 51°13.663 2°55.957 126.9 0.1 210 -999
2011-03-03 04:39:45 51°13.663 2°55.957 126.9 -999 205 -999
2011-03-03 04:39:50 51°13.663 2°55.957 126.9 -999 94 -999
2011-03-03 04:39:55 51°13.663 2°55.957 126.9 0.1 168 -999
2011-03-03 04:40:00 51°13.663 2°55.957 126.9 -999 122 -999
2011-03-03 04:40:05 51°13.663 2°55.957 126.9 0.1 211 -999
2011-03-03 04:40:10 51°13.663 2°55.958 126.9 -999 248 -999
2011-03-03 04:40:15 51°13.663 2°55.958 126.9 -999 228 -999
2011-03-03 04:40:20 51°13.663 2°55.958 126.9 -999 251 -999
2011-03-03 04:40:25 51°13.663 2°55.958 126.9 -999 62 -999
2011-03-03 04:40:30 51°13.663 2°55.958 126.9 -999 124 -999
2011-03-03 04:40:35 51°13.663 2°55.958 126.8 -999 165 -999
2011-03-03 04:40:40 51°13.663 2°55.958 126.8 0.1 201 -999
2011-03-03 04:40:45 51°13.663 2°55.958 126.8 -999 159 -999
2011-03-03 04:40:50 51°13.663 2°55.958 126.8 -999 195 -999
2011-03-03 04:40:55 51°13.663 2°55.957 126.8 -999 203 -999
2011-03-03 04:41:00 51°13.663 2°55.958 126.8 -999 65 -999
2011-03-03 04:41:05 51°13.663 2°55.958 126.8 -999 35 -999
2011-03-03 04:41:10 51°13.663 2°55.957 126.8 -999 158 -999
2011-03-03 04:41:15 51°13.663 2°55.958 126.8 -999 83 -999
2011-03-03 04:41:20 51°13.663 2°55.958 126.8 -999 41 -999
2011-03-03 04:41:25 51°13.663 2°55.957 126.8 -999 207 -999
2011-03-03 04:41:30 51°13.663 2°55.957 126.8 -999 141 -999
2011-03-03 04:41:35 51°13.663 2°55.958 126.8 0.1 41 -999
2011-03-03 04:41:40 51°13.663 2°55.958 126.7 0.1 28 -999
2011-03-03 04:41:45 51°13.663 2°55.957 126.7 -999 73 -999
2011-03-03 04:41:50 51°13.663 2°55.958 126.7 -999 193 -999
2011-03-03 04:41:55 51°13.663 2°55.957 126.7 -999 212 -999
2011-03-03 04:42:00 51°13.663 2°55.957 126.7 0.1 216 -999
2011-03-03 04:42:05 51°13.663 2°55.957 126.7 0.1 213 -999
2011-03-03 04:42:10 51°13.663 2°55.957 126.7 0.1 225 -999
2011-03-03 04:42:15 51°13.663 2°55.958 126.7 -999 187 -999
2011-03-03 04:42:20 51°13.663 2°55.958 126.7 -999 256 -999
2011-03-03 04:42:25 51°13.662 2°55.958 126.7 0.1 217 -999
2011-03-03 04:42:30 51°13.662 2°55.958 126.7 0.1 225 -999
2011-03-03 04:42:35 51°13.663 2°55.958 126.7 -999 220 -999
2011-03-03 04:42:40 51°13.663 2°55.958 126.7 -999 219 -999
2011-03-03 04:42:45 51°13.663 2°55.958 126.7 -999 41 -999
2011-03-03 04:42:50 51°13.663 2°55.958 126.7 0.1 209 -999
2011-03-03 04:42:55 51°13.663 2°55.958 126.7 0.1 230 -999
2011-03-03 04:43:00 51°13.663 2°55.958 126.7 -999 181 -999
2011-03-03 04:43:05 51°13.663 2°55.958 126.7 0.1 203 -999
2011-03-03 04:43:10 51°13.663 2°55.958 126.7 -999 51 -999
2011-03-03 04:43:15 51°13.663 2°55.958 126.7 0.1 203 -999
2011-03-03 04:43:20 51°13.663 2°55.958 126.7 0.1 217 -999
2011-03-03 04:43:25 51°13.663 2°55.958 126.7 -999 195 -999
2011-03-03 04:43:30 51°13.663 2°55.958 126.7 0.1 220 -999
2011-03-03 04:43:35 51°13.663 2°55.958 126.7 -999 54 -999
2011-03-03 04:43:40 51°13.663 2°55.958 126.7 -999 215 -999
2011-03-03 04:43:45 51°13.663 2°55.958 126.7 -999 56 -999
2011-03-03 04:43:50 51°13.663 2°55.958 126.7 -999 109 -999
2011-03-03 04:43:55 51°13.663 2°55.958 126.7 -999 131 -999
2011-03-03 04:44:00 51°13.663 2°55.958 126.7 -999 211 -999
2011-03-03 04:44:05 51°13.663 2°55.958 126.7 -999 270 -999
2011-03-03 04:44:10 51°13.663 2°55.958 126.7 -999 310 -999
2011-03-03 04:44:15 51°13.663 2°55.958 126.7 -999 295 -999
2011-03-03 04:44:20 51°13.663 2°55.958 126.7 0.1 222 -999
2011-03-03 04:44:25 51°13.663 2°55.958 126.7 -999 217 -999
2011-03-03 04:44:30 51°13.663 2°55.958 126.7 0.1 224 -999
2011-03-03 04:44:35 51°13.663 2°55.958 126.7 -999 346 -999
2011-03-03 04:44:40 51°13.663 2°55.958 126.7 -999 228 -999
2011-03-03 04:44:45 51°13.663 2°55.957 126.7 0.1 228 -999
2011-03-03 04:44:50 51°13.663 2°55.958 126.7 -999 269 -999
2011-03-03 04:44:55 51°13.663 2°55.958 126.7 -999 20 -999
2011-03-03 04:45:00 51°13.663 2°55.957 126.7 -999 234 -999
2011-03-03 04:45:05 51°13.663 2°55.957 126.8 0.1 224 -999
2011-03-03 04:45:10 51°13.663 2°55.957 126.8 0.1 226 -999
2011-03-03 04:45:15 51°13.663 2°55.957 126.8 -999 280 -999
2011-03-03 04:45:20 51°13.663 2°55.957 126.8 -999 294 -999
2011-03-03 04:45:25 51°13.663 2°55.957 126.8 0.1 255 -999
2011-03-03 04:45:30 51°13.663 2°55.957 126.8 0.1 235 -999
2011-03-03 04:45:35 51°13.663 2°55.957 126.8 -999 195 -999
2011-03-03 04:45:40 51°13.663 2°55.957 126.8 0.1 233 -999
2011-03-03 04:45:45 51°13.663 2°55.957 126.8 0.1 238 -999
2011-03-03 04:45:50 51°13.663 2°55.957 126.8 -999 230 -999
2011-03-03 04:45:55 51°13.663 2°55.957 126.8 -999 210 -999
2011-03-03 04:46:00 51°13.663 2°55.957 126.8 0.1 219 -999
2011-03-03 04:46:05 51°13.663 2°55.957 126.8 0.1 234 -999
2011-03-03 04:46:10 51°13.663 2°55.957 126.8 -999 236 -999
2011-03-03 04:46:15 51°13.663 2°55.957 126.8 -999 319 -999
2011-03-03 04:46:20 51°13.663 2°55.957 126.8 0.1 236 -999
2011-03-03 04:46:25 51°13.663 2°55.957 126.8 0.1 234 -999
2011-03-03 04:46:30 51°13.663 2°55.957 126.8 -999 268 -999
2011-03-03 04:46:35 51°13.663 2°55.957 126.8 -999 49 -999
2011-03-03 04:46:40 51°13.663 2°55.957 126.8 -999 88 -999
2011-03-03 04:46:45 51°13.663 2°55.957 126.8 0.1 219 -999
2011-03-03 04:46:50 51°13.663 2°55.957 126.8 0.1 231 -999
2011-03-03 04:46:55 51°13.663 2°55.957 126.8 -999 269 -999
2011-03-03 04:47:00 51°13.662 2°55.957 126.8 0.1 227 -999
2011-03-03 04:47:05 51°13.663 2°55.958 126.8 -999 20 -999
2011-03-03 04:47:10 51°13.663 2°55.958 126.8 -999 71 -999
2011-03-03 04:47:15 51°13.663 2°55.958 126.8 0.1 32 -999
2011-03-03 04:47:20 51°13.662 2°55.957 126.8 0.1 198 -999
2011-03-03 04:47:25 51°13.662 2°55.957 126.8 0.1 227 -999
2011-03-03 04:47:30 51°13.662 2°55.957 126.8 0.1 40 -999
2011-03-03 04:47:35 51°13.662 2°55.957 126.8 -999 49 -999
2011-03-03 04:47:40 51°13.662 2°55.957 126.8 -999 235 -999
2011-03-03 04:47:45 51°13.662 2°55.958 126.8 -999 16 -999
2011-03-03 04:47:50 51°13.662 2°55.958 126.8 -999 357 -999
2011-03-03 04:47:55 51°13.662 2°55.958 126.8 0.1 31 -999
2011-03-03 04:48:00 51°13.662 2°55.958 126.8 -999 194 -999
2011-03-03 04:48:05 51°13.662 2°55.958 126.8 -999 315 -999
2011-03-03 04:48:10 51°13.662 2°55.958 126.8 0.1 24 -999
2011-03-03 04:48:15 51°13.662 2°55.958 126.8 -999 198 -999
2011-03-03 04:48:20 51°13.662 2°55.958 126.8 0.1 239 -999
2011-03-03 04:48:25 51°13.662 2°55.958 126.8 0.1 236 -999
2011-03-03 04:48:30 51°13.662 2°55.958 126.8 0.2 223 -999
2011-03-03 04:48:35 51°13.662 2°55.958 126.8 0.1 228 -999
2011-03-03 04:48:40 51°13.662 2°55.958 126.9 0.1 238 -999
2011-03-03 04:48:45 51°13.663 2°55.958 126.9 -999 33 -999
2011-03-03 04:48:50 51°13.662 2°55.959 126.9 -999 224 -999
2011-03-03 04:48:55 51°13.662 2°55.959 126.9 -999 252 -999
2011-03-03 04:49:00 51°13.662 2°55.959 126.9 -999 357 -999
2011-03-03 04:49:05 51°13.662 2°55.958 126.9 0.1 222 -999
2011-03-03 04:49:10 51°13.662 2°55.958 126.9 0.1 234 -999
2011-03-03 04:49:15 51°13.662 2°55.958 126.9 -999 248 -999
2011-03-03 04:49:20 51°13.662 2°55.958 126.9 -999 327 -999
2011-03-03 04:49:25 51°13.662 2°55.958 126.9 0.1 232 -999
2011-03-03 04:49:30 51°13.662 2°55.958 126.9 0.1 239 -999
2011-03-03 04:49:35 51°13.662 2°55.958 126.9 0.1 236 -999
2011-03-03 04:49:40 51°13.663 2°55.959 126.8 -999 -999 -999
2011-03-03 04:49:45 51°13.663 2°55.959 126.8 -999 48 -999
2011-03-03 04:49:50 51°13.662 2°55.959 126.8 -999 50 -999
2011-03-03 04:49:55 51°13.663 2°55.958 126.8 -999 56 -999
2011-03-03 04:50:00 51°13.662 2°55.958 126.8 -999 243 -999
2011-03-03 04:50:05 51°13.662 2°55.958 126.8 0.1 254 -999
2011-03-03 04:50:10 51°13.662 2°55.958 126.8 0.1 227 -999
2011-03-03 04:50:15 51°13.662 2°55.958 126.8 -999 228 -999
2011-03-03 04:50:20 51°13.662 2°55.958 126.8 -999 269 -999
2011-03-03 04:50:25 51°13.663 2°55.959 126.8 -999 2 -999
2011-03-03 04:50:30 51°13.662 2°55.959 126.8 -999 37 -999
2011-03-03 04:50:35 51°13.662 2°55.959 126.8 -999 268 -999
2011-03-03 04:50:40 51°13.662 2°55.958 126.8 0.1 242 -999
2011-03-03 04:50:45 51°13.662 2°55.958 126.8 0.1 242 -999
2011-03-03 04:50:50 51°13.662 2°55.958 126.8 0.1 244 -999
2011-03-03 04:50:55 51°13.663 2°55.959 126.8 -999 303 -999
2011-03-03 04:51:00 51°13.663 2°55.959 126.8 -999 305 -999
2011-03-03 04:51:05 51°13.663 2°55.959 126.8 -999 5 -999
2011-03-03 04:51:10 51°13.663 2°55.959 126.8 -999 278 -999
2011-03-03 04:51:15 51°13.663 2°55.959 126.8 -999 233 -999
2011-03-03 04:51:20 51°13.663 2°55.959 126.8 -999 249 -999
2011-03-03 04:51:25 51°13.663 2°55.959 126.8 -999 253 -999
2011-03-03 04:51:30 51°13.663 2°55.959 126.8 -999 329 -999
2011-03-03 04:51:35 51°13.663 2°55.959 126.8 -999 20 -999
2011-03-03 04:51:40 51°13.663 2°55.96 126.8 -999 155 -999
2011-03-03 04:51:45 51°13.663 2°55.959 126.8 0.1 226 -999
2011-03-03 04:51:50 51°13.663 2°55.959 126.8 -999 152 -999
2011-03-03 04:51:55 51°13.663 2°55.959 126.8 0.1 224 -999
2011-03-03 04:52:00 51°13.663 2°55.959 126.8 0.1 227 -999
2011-03-03 04:52:05 51°13.663 2°55.959 126.8 0.1 247 -999
2011-03-03 04:52:10 51°13.663 2°55.96 126.8 0.1 34 -999
2011-03-03 04:52:15 51°13.663 2°55.96 126.8 -999 243 -999
2011-03-03 04:52:20 51°13.662 2°55.959 126.8 0.2 236 -999
2011-03-03 04:52:25 51°13.662 2°55.96 126.8 0.2 247 -999
2011-03-03 04:52:30 51°13.663 2°55.96 126.8 -999 297 -999
2011-03-03 04:52:35 51°13.663 2°55.96 126.8 0.1 47 -999
2011-03-03 04:52:40 51°13.663 2°55.96 126.8 0.1 25 -999
2011-03-03 04:52:45 51°13.662 2°55.96 126.8 0.1 12 -999
2011-03-03 04:52:50 51°13.662 2°55.96 126.8 -999 -999 -999
2011-03-03 04:52:55 51°13.662 2°55.96 126.8 0.1 230 -999
2011-03-03 04:53:00 51°13.662 2°55.96 126.8 0.1 245 -999
2011-03-03 04:53:05 51°13.662 2°55.961 126.8 -999 345 -999
2011-03-03 04:53:10 51°13.662 2°55.961 126.8 -999 1 -999
2011-03-03 04:53:15 51°13.662 2°55.96 126.8 0.1 214 -999
2011-03-03 04:53:20 51°13.662 2°55.961 126.8 0.1 250 -999
2011-03-03 04:53:25 51°13.662 2°55.961 126.8 0.1 230 -999
2011-03-03 04:53:30 51°13.662 2°55.961 126.8 0.1 261 -999
2011-03-03 04:53:35 51°13.662 2°55.961 126.8 -999 248 -999
2011-03-03 04:53:40 51°13.662 2°55.961 126.8 -999 297 -999
2011-03-03 04:53:45 51°13.662 2°55.961 126.8 0.1 263 -999
2011-03-03 04:53:50 51°13.662 2°55.961 126.8 0.1 38 -999
2011-03-03 04:53:55 51°13.662 2°55.961 126.8 0.1 45 -999
2011-03-03 04:54:00 51°13.662 2°55.961 126.8 -999 230 -999
2011-03-03 04:54:05 51°13.661 2°55.961 126.8 0.1 223 -999
2011-03-03 04:54:10 51°13.661 2°55.961 126.8 0.1 238 -999
2011-03-03 04:54:15 51°13.661 2°55.961 126.8 0.1 243 -999
2011-03-03 04:54:20 51°13.661 2°55.961 126.8 -999 330 -999
2011-03-03 04:54:25 51°13.661 2°55.961 126.8 0.1 240 -999
2011-03-03 04:54:30 51°13.661 2°55.961 126.8 0.1 280 -999
2011-03-03 04:54:35 51°13.661 2°55.961 126.8 -999 279 -999
2011-03-03 04:54:40 51°13.661 2°55.961 126.8 0.1 238 -999
2011-03-03 04:54:45 51°13.661 2°55.961 126.8 0.1 231 -999
2011-03-03 04:54:50 51°13.661 2°55.961 126.8 0.1 252 -999
2011-03-03 04:54:55 51°13.661 2°55.961 126.8 0.1 235 -999
2011-03-03 04:55:00 51°13.661 2°55.961 126.8 0.1 239 -999
2011-03-03 04:55:05 51°13.661 2°55.961 126.8 0.1 231 -999
2011-03-03 04:55:10 51°13.661 2°55.961 126.8 0.1 233 -999
2011-03-03 04:55:15 51°13.661 2°55.961 126.8 -999 355 -999
2011-03-03 04:55:20 51°13.661 2°55.961 126.8 -999 256 -999
2011-03-03 04:55:25 51°13.661 2°55.961 126.8 -999 250 -999
2011-03-03 04:55:30 51°13.661 2°55.961 126.8 -999 331 -999
2011-03-03 04:55:35 51°13.661 2°55.96 126.8 0.1 227 -999
2011-03-03 04:55:40 51°13.661 2°55.961 126.8 -999 257 -999
2011-03-03 04:55:45 51°13.661 2°55.96 126.8 0.1 225 -999
2011-03-03 04:55:50 51°13.661 2°55.96 126.8 0.1 243 -999
2011-03-03 04:55:55 51°13.661 2°55.96 126.8 0.1 240 -999
2011-03-03 04:56:00 51°13.661 2°55.96 126.8 0.1 223 -999
2011-03-03 04:56:05 51°13.662 2°55.96 126.8 -999 288 -999
2011-03-03 04:56:10 51°13.662 2°55.96 126.8 -999 317 -999
2011-03-03 04:56:15 51°13.661 2°55.96 126.8 0.1 228 -999
2011-03-03 04:56:20 51°13.662 2°55.96 126.8 0.1 247 -999
2011-03-03 04:56:25 51°13.662 2°55.96 126.8 -999 75 -999
2011-03-03 04:56:30 51°13.662 2°55.961 126.8 -999 72 -999
2011-03-03 04:56:35 51°13.662 2°55.961 126.8 -999 264 -999
2011-03-03 04:56:40 51°13.662 2°55.96 126.8 -999 276 -999
2011-03-03 04:56:45 51°13.662 2°55.96 126.8 -999 288 -999
2011-03-03 04:56:50 51°13.662 2°55.96 126.8 0.1 226 -999
2011-03-03 04:56:55 51°13.662 2°55.959 126.8 0.1 231 -999
2011-03-03 04:57:00 51°13.662 2°55.96 126.8 0.1 244 -999
2011-03-03 04:57:05 51°13.662 2°55.96 126.8 -999 285 -999
2011-03-03 04:57:10 51°13.662 2°55.96 126.8 -999 325 -999
2011-03-03 04:57:15 51°13.662 2°55.96 126.8 -999 22 -999
2011-03-03 04:57:20 51°13.662 2°55.959 126.8 0.1 241 -999
2011-03-03 04:57:25 51°13.662 2°55.96 126.8 -999 276 -999
2011-03-03 04:57:30 51°13.662 2°55.96 126.7 -999 19 -999
2011-03-03 04:57:35 51°13.662 2°55.96 126.7 -999 84 -999
2011-03-03 04:57:40 51°13.662 2°55.959 126.7 0.1 223 -999
2011-03-03 04:57:45 51°13.662 2°55.96 126.7 -999 241 -999
2011-03-03 04:57:50 51°13.662 2°55.96 126.7 -999 290 -999
2011-03-03 04:57:55 51°13.662 2°55.96 126.7 0.1 13 -999
2011-03-03 04:58:00 51°13.662 2°55.959 126.7 -999 304 -999
2011-03-03 04:58:05 51°13.662 2°55.96 126.7 -999 210 -999
2011-03-03 04:58:10 51°13.662 2°55.96 126.7 -999 293 -999
2011-03-03 04:58:15 51°13.662 2°55.96 126.7 -999 314 -999
2011-03-03 04:58:20 51°13.662 2°55.96 126.7 -999 281 -999
2011-03-03 04:58:25 51°13.662 2°55.96 126.7 0.1 268 -999
2011-03-03 04:58:30 51°13.662 2°55.96 126.7 0.1 24 -999
2011-03-03 04:58:35 51°13.662 2°55.959 126.7 -999 252 -999
2011-03-03 04:58:40 51°13.662 2°55.959 126.7 0.1 236 -999
2011-03-03 04:58:45 51°13.662 2°55.959 126.7 -999 253 -999
2011-03-03 04:58:50 51°13.662 2°55.959 126.7 0.1 235 -999
2011-03-03 04:58:55 51°13.662 2°55.959 126.7 0.1 253 -999
2011-03-03 04:59:00 51°13.662 2°55.96 126.7 -999 265 -999
2011-03-03 04:59:05 51°13.662 2°55.96 126.7 0.1 242 -999
2011-03-03 04:59:10 51°13.662 2°55.96 126.7 0.1 284 -999
2011-03-03 04:59:15 51°13.662 2°55.96 126.7 -999 238 -999
2011-03-03 04:59:20 51°13.662 2°55.96 126.7 0.1 242 -999
2011-03-03 04:59:25 51°13.662 2°55.96 126.7 -999 276 -999
2011-03-03 04:59:30 51°13.662 2°55.96 126.7 0.1 269 -999
2011-03-03 04:59:35 51°13.662 2°55.96 126.7 -999 304 -999
2011-03-03 04:59:40 51°13.662 2°55.96 126.7 -999 306 -999
2011-03-03 04:59:45 51°13.662 2°55.961 126.7 -999 -999 -999
2011-03-03 04:59:50 51°13.662 2°55.961 126.7 -999 245 -999
2011-03-03 04:59:55 51°13.662 2°55.961 126.7 0.1 26 -999
2011-03-03 05:00:00 51°13.662 2°55.961 126.7 -999 38 -999
2011-03-03 05:00:05 51°13.662 2°55.96 126.7 0.1 231 -999
2011-03-03 05:00:10 51°13.662 2°55.96 126.7 0.1 239 -999
2011-03-03 05:00:15 51°13.662 2°55.96 126.7 0.1 18 -999
2011-03-03 05:00:20 51°13.662 2°55.96 126.7 -999 182 -999
2011-03-03 05:00:25 51°13.662 2°55.961 126.7 0.1 234 -999
2011-03-03 05:00:30 51°13.662 2°55.961 126.7 0.1 266 -999
2011-03-03 05:00:35 51°13.662 2°55.961 126.7 0.1 12 -999
2011-03-03 05:00:40 51°13.662 2°55.961 126.7 -999 234 -999
2011-03-03 05:00:45 51°13.662 2°55.962 126.7 0.1 207 -999
2011-03-03 05:00:49 51°13.663 2°55.962 126.7 -999 33 -999
2011-03-03 05:00:55 51°13.662 2°55.962 126.7 -999 208 -999
2011-03-03 05:00:59 51°13.662 2°55.962 126.7 -999 117 -999
2011-03-03 05:01:05 51°13.662 2°55.962 126.7 -999 42 -999
2011-03-03 05:01:09 51°13.662 2°55.962 126.7 -999 234 -999
2011-03-03 05:01:15 51°13.663 2°55.962 126.7 0.1 352 -999
2011-03-03 05:01:19 51°13.663 2°55.963 126.7 0.2 45 -999
2011-03-03 05:01:25 51°13.663 2°55.962 126.7 0.1 71 -999
2011-03-03 05:01:29 51°13.662 2°55.962 126.7 0.1 224 -999
2011-03-03 05:01:35 51°13.662 2°55.962 126.7 0.1 252 -999
2011-03-03 05:01:40 51°13.662 2°55.962 126.7 0.1 242 -999
2011-03-03 05:01:45 51°13.662 2°55.962 126.7 0.1 231 -999
2011-03-03 05:01:49 51°13.662 2°55.962 126.7 -999 286 -999
2011-03-03 05:01:55 51°13.662 2°55.962 126.7 0.1 231 -999
2011-03-03 05:02:00 51°13.662 2°55.962 126.7 -999 213 -999
2011-03-03 05:02:04 51°13.662 2°55.962 126.7 0.1 234 -999
2011-03-03 05:02:10 51°13.662 2°55.962 126.7 -999 348 -999
2011-03-03 05:02:16 51°13.662 2°55.962 126.7 0.1 9 -999
2011-03-03 05:02:20 51°13.662 2°55.962 126.7 0.1 23 -999
2011-03-03 05:02:25 51°13.662 2°55.962 126.7 0.1 42 -999
2011-03-03 05:02:30 51°13.662 2°55.962 126.7 -999 223 -999
2011-03-03 05:02:35 51°13.662 2°55.962 126.7 0.1 222 -999
2011-03-03 05:02:40 51°13.662 2°55.962 126.7 0.1 230 -999
2011-03-03 05:02:44 51°13.662 2°55.962 126.7 -999 319 -999
2011-03-03 05:02:50 51°13.662 2°55.963 126.7 -999 348 -999
2011-03-03 05:02:55 51°13.661 2°55.963 126.7 -999 21 -999
2011-03-03 05:03:00 51°13.661 2°55.963 126.7 0.1 252 -999
2011-03-03 05:03:04 51°13.661 2°55.962 126.7 0.1 255 -999
2011-03-03 05:03:10 51°13.661 2°55.962 126.7 -999 301 -999
2011-03-03 05:03:15 51°13.661 2°55.962 126.7 -999 316 -999
2011-03-03 05:03:20 51°13.661 2°55.961 126.7 -999 149 -999
2011-03-03 05:03:24 51°13.661 2°55.961 126.7 -999 154 -999
2011-03-03 05:03:30 51°13.662 2°55.959 126.7 -999 289 -999
2011-03-03 05:03:34 51°13.662 2°55.959 126.7 0.1 67 -999
2011-03-03 05:03:40 51°13.662 2°55.957 126.7 -999 55 -999
2011-03-03 05:03:45 51°13.662 2°55.958 126.6 0.1 84 -999
2011-03-03 05:03:50 51°13.662 2°55.958 126.6 0.2 111 -999
2011-03-03 05:03:54 51°13.662 2°55.957 126.6 -999 146 -999
2011-03-03 05:04:00 51°13.662 2°55.956 126.6 0.1 269 -999
2011-03-03 05:04:05 51°13.662 2°55.955 126.6 0.2 291 -999
2011-03-03 05:04:10 51°13.662 2°55.955 126.6 0.1 286 -999
2011-03-03 05:04:14 51°13.662 2°55.955 126.6 0.3 285 -999
2011-03-03 05:04:20 51°13.662 2°55.956 126.6 0.1 284 -999
2011-03-03 05:04:25 51°13.662 2°55.956 126.6 0.1 150 -999
2011-03-03 05:04:30 51°13.661 2°55.957 126.6 0.2 133 -999
2011-03-03 05:04:35 51°13.661 2°55.957 126.6 0.2 131 -999
2011-03-03 05:04:40 51°13.661 2°55.957 126.6 0.1 176 -999
2011-03-03 05:04:45 51°13.661 2°55.957 126.6 0.1 297 -999
2011-03-03 05:04:50 51°13.662 2°55.956 126.6 0.1 326 -999
2011-03-03 05:04:54 51°13.662 2°55.956 126.6 0.1 291 -999
2011-03-03 05:04:59 51°13.662 2°55.955 126.6 0.4 291 -999
2011-03-03 05:05:05 51°13.662 2°55.955 126.6 0.3 301 -999
2011-03-03 05:05:09 51°13.662 2°55.955 126.6 0.2 288 -999
2011-03-03 05:05:15 51°13.662 2°55.956 126.6 0.1 292 -999
2011-03-03 05:05:19 51°13.662 2°55.956 126.7 0.1 342 -999
2011-03-03 05:05:25 51°13.661 2°55.956 126.7 0.1 292 -999
2011-03-03 05:05:29 51°13.662 2°55.956 126.7 0.3 292 -999
2011-03-03 05:05:35 51°13.661 2°55.956 126.7 0.2 293 -999
2011-03-03 05:05:40 51°13.661 2°55.957 126.7 -999 205 -999
2011-03-03 05:05:44 51°13.661 2°55.957 126.7 -999 351 -999
2011-03-03 05:05:50 51°13.661 2°55.958 126.7 0.1 120 -999
2011-03-03 05:05:55 51°13.661 2°55.959 126.7 0.2 90 -999
2011-03-03 05:06:00 51°13.66 2°55.959 126.7 0.3 111 -999
2011-03-03 05:06:04 51°13.66 2°55.959 126.7 0.3 118 -999
2011-03-03 05:06:10 51°13.66 2°55.959 126.7 0.2 133 -999
2011-03-03 05:06:15 51°13.66 2°55.959 126.7 0.2 128 -999
2011-03-03 05:06:20 51°13.661 2°55.958 126.7 -999 198 -999
2011-03-03 05:06:24 51°13.661 2°55.958 126.7 0.2 294 -999
2011-03-03 05:06:30 51°13.661 2°55.958 126.7 -999 251 -999
2011-03-03 05:06:35 51°13.661 2°55.959 126.7 0.2 85 -999
2011-03-03 05:06:40 51°13.66 2°55.959 126.7 0.2 117 -999
2011-03-03 05:06:44 51°13.661 2°55.958 126.7 0.1 346 -999
2011-03-03 05:06:51 51°13.661 2°55.958 126.7 0.1 349 -999
2011-03-03 05:06:55 51°13.661 2°55.956 126.7 0.3 292 -999
2011-03-03 05:07:00 51°13.661 2°55.954 126.7 0.5 291 -999
2011-03-03 05:07:04 51°13.661 2°55.955 126.7 0.3 305 -999
2011-03-03 05:07:10 51°13.661 2°55.956 126.7 0.1 327 -999